Main page
METAR-TAF:

METAR-TAF

Airports :

Inverness Airport

Inverness, Scotland

latitude: 57-32N, longitude: 004-03W, elevation: 9 m

Current weather observation

The report was made 20 minutes ago, at 13:50 UTC
Wind 16 kt from the South/Southwest
Temperature 18°C
Humidity 59%
Pressure 1003 hPa
Visibility 10 km or more
Few clouds at a height of 3100 ft
Scattered clouds at a height of 3500 ft, Cumulonimbus.
showers in vicinity

METAR: EGPE 161350Z 21016KT 9999 VCSH FEW031 SCT035CB 18/10 Q1003

Time: 15:10 (14:10 UTC)

Forecast

The report was made 3 hours and 12 minutes ago, at 10:58 UTC
Forecast valid from 16 at 12 UTC to 16 at 21 UTC
Wind 15 kt from the Southwest
Visibility 10 km or more
Scattered clouds at a height of 2500 ft
Probability 40% :
Temporary
from 16 at 12 UTC to 16 at 18 UTC
Wind 18 kt from the Southwest with gusts up to 28 kt
Visibility: 7000 m
rain showers

TAF: EGPE 161058Z 1612/1621 23015KT 9999 SCT025 PROB40 TEMPO 1612/1618 23018G28KT 7000 SHRA

Weather observations and forecasts of more than 4000 airports (METAR and TAF reports).

The available stations are represented by yellow and red dots on the map.

Hover mouse over dot to see the name of the station.

Then click to see weather observations and forecasts.

To change the map : click on the green buttons with a black cross to zoom in, on the green button with a dash to zoom out, or on the green arrows for adjacent maps.


METAR-TAF: